sensor_id;sensor_type;location;lat;lon;timestamp;temperature;humidity
51825;DHT22;37879;52.986;6.282;2022-11-09T00:01:29;11.50;99.90
51825;DHT22;37879;52.986;6.282;2022-11-09T00:04:00;11.50;99.90
51825;DHT22;37879;52.986;6.282;2022-11-09T00:06:26;11.60;99.90
51825;DHT22;37879;52.986;6.282;2022-11-09T00:08:52;11.60;99.90
51825;DHT22;37879;52.986;6.282;2022-11-09T00:11:18;11.60;99.90
51825;DHT22;37879;52.986;6.282;2022-11-09T00:13:44;11.60;99.90
51825;DHT22;37879;52.986;6.282;2022-11-09T00:16:13;11.60;99.90
51825;DHT22;37879;52.986;6.282;2022-11-09T00:18:39;11.60;99.90
51825;DHT22;37879;52.986;6.282;2022-11-09T00:21:16;11.50;99.90
51825;DHT22;37879;52.986;6.282;2022-11-09T00:23:42;11.50;99.90
51825;DHT22;37879;52.986;6.282;2022-11-09T00:26:09;11.50;99.90
51825;DHT22;37879;52.986;6.282;2022-11-09T00:28:35;11.50;99.90
51825;DHT22;37879;52.986;6.282;2022-11-09T00:31:21;11.40;99.90
51825;DHT22;37879;52.986;6.282;2022-11-09T00:33:51;11.40;99.90
51825;DHT22;37879;52.986;6.282;2022-11-09T00:36:18;11.40;99.90
51825;DHT22;37879;52.986;6.282;2022-11-09T00:38:48;11.30;99.90
51825;DHT22;37879;52.986;6.282;2022-11-09T00:41:15;11.30;99.90
51825;DHT22;37879;52.986;6.282;2022-11-09T00:43:40;11.30;99.90
51825;DHT22;37879;52.986;6.282;2022-11-09T00:46:06;11.30;99.90
51825;DHT22;37879;52.986;6.282;2022-11-09T00:48:32;11.20;99.90
51825;DHT22;37879;52.986;6.282;2022-11-09T00:50:58;11.30;99.90
51825;DHT22;37879;52.986;6.282;2022-11-09T00:53:25;11.20;99.90
51825;DHT22;37879;52.986;6.282;2022-11-09T00:55:58;11.20;99.90
51825;DHT22;37879;52.986;6.282;2022-11-09T00:58:26;11.20;99.90
51825;DHT22;37879;52.986;6.282;2022-11-09T01:00:53;11.20;99.90
51825;DHT22;37879;52.986;6.282;2022-11-09T01:03:19;11.20;99.90
51825;DHT22;37879;52.986;6.282;2022-11-09T01:05:45;11.20;99.90
51825;DHT22;37879;52.986;6.282;2022-11-09T01:08:11;11.20;99.90
51825;DHT22;37879;52.986;6.282;2022-11-09T01:10:47;11.30;99.90
51825;DHT22;37879;52.986;6.282;2022-11-09T01:13:14;11.30;99.90
51825;DHT22;37879;52.986;6.282;2022-11-09T01:15:51;11.40;99.90
51825;DHT22;37879;52.986;6.282;2022-11-09T01:18:18;11.50;99.90
51825;DHT22;37879;52.986;6.282;2022-11-09T01:20:45;11.50;99.90
51825;DHT22;37879;52.986;6.282;2022-11-09T01:23:13;11.50;99.90
51825;DHT22;37879;52.986;6.282;2022-11-09T01:25:39;11.60;99.90
51825;DHT22;37879;52.986;6.282;2022-11-09T01:28:06;11.60;99.90
51825;DHT22;37879;52.986;6.282;2022-11-09T01:30:37;11.70;99.90
51825;DHT22;37879;52.986;6.282;2022-11-09T01:33:05;11.60;99.90
51825;DHT22;37879;52.986;6.282;2022-11-09T01:35:35;11.70;99.90
51825;DHT22;37879;52.986;6.282;2022-11-09T01:38:02;11.70;99.90
51825;DHT22;37879;52.986;6.282;2022-11-09T01:40:29;11.80;99.90
51825;DHT22;37879;52.986;6.282;2022-11-09T01:42:55;11.90;99.90
51825;DHT22;37879;52.986;6.282;2022-11-09T01:45:24;12.00;99.90
51825;DHT22;37879;52.986;6.282;2022-11-09T01:48:07;12.00;99.90
51825;DHT22;37879;52.986;6.282;2022-11-09T01:50:46;12.10;99.90
51825;DHT22;37879;52.986;6.282;2022-11-09T01:53:22;12.10;99.90
51825;DHT22;37879;52.986;6.282;2022-11-09T01:55:55;12.10;99.90
51825;DHT22;37879;52.986;6.282;2022-11-09T01:58:31;12.10;99.90
51825;DHT22;37879;52.986;6.282;2022-11-09T02:00:59;12.00;99.90
51825;DHT22;37879;52.986;6.282;2022-11-09T02:03:52;12.00;99.90
51825;DHT22;37879;52.986;6.282;2022-11-09T02:06:21;11.90;99.90
51825;DHT22;37879;52.986;6.282;2022-11-09T02:08:48;11.90;99.90
51825;DHT22;37879;52.986;6.282;2022-11-09T02:11:18;11.90;99.90
51825;DHT22;37879;52.986;6.282;2022-11-09T02:13:49;11.90;99.90
51825;DHT22;37879;52.986;6.282;2022-11-09T02:16:16;11.90;99.90
51825;DHT22;37879;52.986;6.282;2022-11-09T02:18:54;11.90;99.90
51825;DHT22;37879;52.986;6.282;2022-11-09T02:21:22;11.80;99.90
51825;DHT22;37879;52.986;6.282;2022-11-09T02:23:49;11.80;99.90
51825;DHT22;37879;52.986;6.282;2022-11-09T02:26:23;11.80;99.90
51825;DHT22;37879;52.986;6.282;2022-11-09T02:28:52;11.80;99.90
51825;DHT22;37879;52.986;6.282;2022-11-09T02:31:20;11.70;99.90
51825;DHT22;37879;52.986;6.282;2022-11-09T02:36:16;11.70;99.90
51825;DHT22;37879;52.986;6.282;2022-11-09T02:38:42;11.70;99.90
51825;DHT22;37879;52.986;6.282;2022-11-09T02:41:08;11.70;99.90
51825;DHT22;37879;52.986;6.282;2022-11-09T02:43:35;11.70;99.90
51825;DHT22;37879;52.986;6.282;2022-11-09T02:46:02;11.70;99.90
51825;DHT22;37879;52.986;6.282;2022-11-09T02:48:28;11.60;99.90
51825;DHT22;37879;52.986;6.282;2022-11-09T02:50:53;11.80;99.90
51825;DHT22;37879;52.986;6.282;2022-11-09T02:53:19;11.60;99.90
51825;DHT22;37879;52.986;6.282;2022-11-09T02:55:45;11.60;99.90
51825;DHT22;37879;52.986;6.282;2022-11-09T02:58:10;11.50;99.90
51825;DHT22;37879;52.986;6.282;2022-11-09T03:00:36;11.50;99.90
51825;DHT22;37879;52.986;6.282;2022-11-09T03:03:03;11.50;99.90
51825;DHT22;37879;52.986;6.282;2022-11-09T03:05:29;11.50;99.90
51825;DHT22;37879;52.986;6.282;2022-11-09T03:07:54;11.40;99.90
51825;DHT22;37879;52.986;6.282;2022-11-09T03:10:21;11.40;99.90
51825;DHT22;37879;52.986;6.282;2022-11-09T03:12:47;11.40;99.90
51825;DHT22;37879;52.986;6.282;2022-11-09T03:15:13;11.40;99.90
51825;DHT22;37879;52.986;6.282;2022-11-09T03:17:39;11.40;99.90
51825;DHT22;37879;52.986;6.282;2022-11-09T03:20:05;11.40;99.90
51825;DHT22;37879;52.986;6.282;2022-11-09T03:22:31;11.40;99.90
51825;DHT22;37879;52.986;6.282;2022-11-09T03:24:57;11.40;99.90
51825;DHT22;37879;52.986;6.282;2022-11-09T03:27:23;11.40;99.90
51825;DHT22;37879;52.986;6.282;2022-11-09T03:29:48;11.40;99.90
51825;DHT22;37879;52.986;6.282;2022-11-09T03:32:14;11.40;99.90
51825;DHT22;37879;52.986;6.282;2022-11-09T03:34:40;11.30;99.90
51825;DHT22;37879;52.986;6.282;2022-11-09T03:37:05;11.30;99.90
51825;DHT22;37879;52.986;6.282;2022-11-09T03:39:31;11.30;99.90
51825;DHT22;37879;52.986;6.282;2022-11-09T03:41:58;11.30;99.90
51825;DHT22;37879;52.986;6.282;2022-11-09T03:44:23;11.20;99.90
51825;DHT22;37879;52.986;6.282;2022-11-09T03:46:49;11.20;99.90
51825;DHT22;37879;52.986;6.282;2022-11-09T03:49:15;11.20;99.90
51825;DHT22;37879;52.986;6.282;2022-11-09T03:51:40;11.10;99.90
51825;DHT22;37879;52.986;6.282;2022-11-09T03:54:06;11.10;99.90
51825;DHT22;37879;52.986;6.282;2022-11-09T03:56:32;11.10;99.90
51825;DHT22;37879;52.986;6.282;2022-11-09T03:58:57;11.10;99.90
51825;DHT22;37879;52.986;6.282;2022-11-09T04:01:23;11.10;99.90
51825;DHT22;37879;52.986;6.282;2022-11-09T04:03:49;11.10;99.90
51825;DHT22;37879;52.986;6.282;2022-11-09T04:06:14;11.10;99.90
51825;DHT22;37879;52.986;6.282;2022-11-09T04:08:40;11.10;99.90
51825;DHT22;37879;52.986;6.282;2022-11-09T04:11:06;11.10;99.90
51825;DHT22;37879;52.986;6.282;2022-11-09T04:13:32;11.20;99.90
51825;DHT22;37879;52.986;6.282;2022-11-09T04:15:57;11.00;99.90
51825;DHT22;37879;52.986;6.282;2022-11-09T04:18:23;11.00;99.90
51825;DHT22;37879;52.986;6.282;2022-11-09T04:20:49;11.00;99.90
51825;DHT22;37879;52.986;6.282;2022-11-09T04:23:14;10.90;99.90
51825;DHT22;37879;52.986;6.282;2022-11-09T04:25:41;11.00;99.90
51825;DHT22;37879;52.986;6.282;2022-11-09T04:28:10;10.90;99.90
51825;DHT22;37879;52.986;6.282;2022-11-09T04:30:36;11.00;99.90
51825;DHT22;37879;52.986;6.282;2022-11-09T04:33:03;11.10;99.90
51825;DHT22;37879;52.986;6.282;2022-11-09T04:35:29;11.20;99.90
51825;DHT22;37879;52.986;6.282;2022-11-09T04:37:58;11.20;99.90
51825;DHT22;37879;52.986;6.282;2022-11-09T04:40:25;11.30;99.90
51825;DHT22;37879;52.986;6.282;2022-11-09T04:42:51;11.40;99.90
51825;DHT22;37879;52.986;6.282;2022-11-09T04:45:17;11.50;99.90
51825;DHT22;37879;52.986;6.282;2022-11-09T04:47:43;11.50;99.90
51825;DHT22;37879;52.986;6.282;2022-11-09T04:50:09;11.60;99.90
51825;DHT22;37879;52.986;6.282;2022-11-09T04:52:34;11.60;99.90
51825;DHT22;37879;52.986;6.282;2022-11-09T04:55:00;11.70;99.90
51825;DHT22;37879;52.986;6.282;2022-11-09T04:57:26;11.70;99.90
51825;DHT22;37879;52.986;6.282;2022-11-09T04:59:52;11.70;99.90
51825;DHT22;37879;52.986;6.282;2022-11-09T05:02:18;11.60;99.90
51825;DHT22;37879;52.986;6.282;2022-11-09T05:04:43;11.60;99.90
51825;DHT22;37879;52.986;6.282;2022-11-09T05:07:09;11.50;99.90
51825;DHT22;37879;52.986;6.282;2022-11-09T05:09:35;11.60;99.90
51825;DHT22;37879;52.986;6.282;2022-11-09T05:12:00;11.50;99.90
51825;DHT22;37879;52.986;6.282;2022-11-09T05:14:26;11.50;99.90
51825;DHT22;37879;52.986;6.282;2022-11-09T05:16:52;11.40;99.90
51825;DHT22;37879;52.986;6.282;2022-11-09T05:19:17;11.40;99.90
51825;DHT22;37879;52.986;6.282;2022-11-09T05:21:43;11.60;99.90
51825;DHT22;37879;52.986;6.282;2022-11-09T05:24:09;11.40;99.90
51825;DHT22;37879;52.986;6.282;2022-11-09T05:26:39;11.40;99.90
51825;DHT22;37879;52.986;6.282;2022-11-09T05:29:07;11.40;99.90
51825;DHT22;37879;52.986;6.282;2022-11-09T05:31:34;11.40;99.90
51825;DHT22;37879;52.986;6.282;2022-11-09T05:34:01;11.40;99.90
51825;DHT22;37879;52.986;6.282;2022-11-09T05:36:28;11.40;99.90
51825;DHT22;37879;52.986;6.282;2022-11-09T05:38:55;11.40;99.90
51825;DHT22;37879;52.986;6.282;2022-11-09T05:41:21;11.30;99.90
51825;DHT22;37879;52.986;6.282;2022-11-09T05:43:46;11.20;99.90
51825;DHT22;37879;52.986;6.282;2022-11-09T05:46:13;11.10;99.90
51825;DHT22;37879;52.986;6.282;2022-11-09T05:48:40;11.10;99.90
51825;DHT22;37879;52.986;6.282;2022-11-09T05:51:08;11.10;99.90
51825;DHT22;37879;52.986;6.282;2022-11-09T05:53:34;11.00;99.90
51825;DHT22;37879;52.986;6.282;2022-11-09T05:56:01;11.00;99.90
51825;DHT22;37879;52.986;6.282;2022-11-09T05:58:27;11.00;99.90
51825;DHT22;37879;52.986;6.282;2022-11-09T06:00:53;10.90;99.90
51825;DHT22;37879;52.986;6.282;2022-11-09T06:03:18;10.90;99.90
51825;DHT22;37879;52.986;6.282;2022-11-09T06:05:44;10.90;99.90
51825;DHT22;37879;52.986;6.282;2022-11-09T06:08:12;10.90;99.90
51825;DHT22;37879;52.986;6.282;2022-11-09T06:10:38;10.90;99.90
51825;DHT22;37879;52.986;6.282;2022-11-09T06:13:04;10.90;99.90
51825;DHT22;37879;52.986;6.282;2022-11-09T06:15:30;10.90;99.90
51825;DHT22;37879;52.986;6.282;2022-11-09T06:17:56;10.80;99.90
51825;DHT22;37879;52.986;6.282;2022-11-09T06:20:23;10.80;99.90
51825;DHT22;37879;52.986;6.282;2022-11-09T06:22:59;10.80;99.90
51825;DHT22;37879;52.986;6.282;2022-11-09T06:25:25;10.90;99.90
51825;DHT22;37879;52.986;6.282;2022-11-09T06:27:53;10.90;99.90
51825;DHT22;37879;52.986;6.282;2022-11-09T06:30:22;11.00;99.90
51825;DHT22;37879;52.986;6.282;2022-11-09T06:32:51;11.00;99.90
51825;DHT22;37879;52.986;6.282;2022-11-09T06:35:21;11.20;99.90
51825;DHT22;37879;52.986;6.282;2022-11-09T06:37:47;11.10;99.90
51825;DHT22;37879;52.986;6.282;2022-11-09T06:40:13;11.10;99.90
51825;DHT22;37879;52.986;6.282;2022-11-09T06:42:39;11.10;99.90
51825;DHT22;37879;52.986;6.282;2022-11-09T06:45:05;11.00;99.90
51825;DHT22;37879;52.986;6.282;2022-11-09T06:47:30;11.00;99.90
51825;DHT22;37879;52.986;6.282;2022-11-09T06:49:56;11.00;99.90
51825;DHT22;37879;52.986;6.282;2022-11-09T06:52:22;10.90;99.90
51825;DHT22;37879;52.986;6.282;2022-11-09T06:54:47;10.90;99.90
51825;DHT22;37879;52.986;6.282;2022-11-09T06:57:13;10.90;99.90
51825;DHT22;37879;52.986;6.282;2022-11-09T06:59:39;10.90;99.90
51825;DHT22;37879;52.986;6.282;2022-11-09T07:02:04;10.80;99.90
51825;DHT22;37879;52.986;6.282;2022-11-09T07:04:30;10.80;99.90
51825;DHT22;37879;52.986;6.282;2022-11-09T07:06:56;10.80;99.90
51825;DHT22;37879;52.986;6.282;2022-11-09T07:09:22;10.80;99.90
51825;DHT22;37879;52.986;6.282;2022-11-09T07:11:48;10.70;99.90
51825;DHT22;37879;52.986;6.282;2022-11-09T07:14:14;10.70;99.90
51825;DHT22;37879;52.986;6.282;2022-11-09T07:16:39;10.70;99.90
51825;DHT22;37879;52.986;6.282;2022-11-09T07:19:05;10.70;99.90
51825;DHT22;37879;52.986;6.282;2022-11-09T07:21:32;10.70;99.90
51825;DHT22;37879;52.986;6.282;2022-11-09T07:23:57;10.90;99.90
51825;DHT22;37879;52.986;6.282;2022-11-09T07:26:23;10.70;99.90
51825;DHT22;37879;52.986;6.282;2022-11-09T07:28:49;10.80;99.90
51825;DHT22;37879;52.986;6.282;2022-11-09T07:31:14;10.70;99.90
51825;DHT22;37879;52.986;6.282;2022-11-09T07:33:40;10.80;99.90
51825;DHT22;37879;52.986;6.282;2022-11-09T07:36:06;10.80;99.90
51825;DHT22;37879;52.986;6.282;2022-11-09T07:38:32;10.80;99.90
51825;DHT22;37879;52.986;6.282;2022-11-09T07:40:59;10.80;99.90
51825;DHT22;37879;52.986;6.282;2022-11-09T07:43:25;10.80;99.90
51825;DHT22;37879;52.986;6.282;2022-11-09T07:45:51;10.80;99.90
51825;DHT22;37879;52.986;6.282;2022-11-09T07:48:17;10.90;99.90
51825;DHT22;37879;52.986;6.282;2022-11-09T07:50:43;10.90;99.90
51825;DHT22;37879;52.986;6.282;2022-11-09T07:53:12;10.90;99.90
51825;DHT22;37879;52.986;6.282;2022-11-09T07:55:41;10.90;99.90
51825;DHT22;37879;52.986;6.282;2022-11-09T07:58:12;10.90;99.90
51825;DHT22;37879;52.986;6.282;2022-11-09T08:00:39;11.00;99.90
51825;DHT22;37879;52.986;6.282;2022-11-09T08:03:06;11.00;99.90
51825;DHT22;37879;52.986;6.282;2022-11-09T08:05:32;11.00;99.90
51825;DHT22;37879;52.986;6.282;2022-11-09T08:08:00;11.00;99.90
51825;DHT22;37879;52.986;6.282;2022-11-09T08:10:27;11.00;99.90
51825;DHT22;37879;52.986;6.282;2022-11-09T08:12:58;11.10;99.90
51825;DHT22;37879;52.986;6.282;2022-11-09T08:15:25;11.10;99.90
51825;DHT22;37879;52.986;6.282;2022-11-09T08:17:51;11.10;99.90
51825;DHT22;37879;52.986;6.282;2022-11-09T08:20:17;11.20;99.90
51825;DHT22;37879;52.986;6.282;2022-11-09T08:22:44;11.20;99.90
51825;DHT22;37879;52.986;6.282;2022-11-09T08:25:11;11.20;99.90
51825;DHT22;37879;52.986;6.282;2022-11-09T08:27:37;11.20;99.90
51825;DHT22;37879;52.986;6.282;2022-11-09T08:30:14;11.30;99.90
51825;DHT22;37879;52.986;6.282;2022-11-09T08:32:41;11.30;99.90
51825;DHT22;37879;52.986;6.282;2022-11-09T08:35:08;11.40;99.90
51825;DHT22;37879;52.986;6.282;2022-11-09T08:37:41;11.40;99.90
51825;DHT22;37879;52.986;6.282;2022-11-09T08:40:07;11.40;99.90
51825;DHT22;37879;52.986;6.282;2022-11-09T08:42:33;11.50;99.90
51825;DHT22;37879;52.986;6.282;2022-11-09T08:44:58;11.50;99.90
51825;DHT22;37879;52.986;6.282;2022-11-09T08:47:24;11.50;99.90
51825;DHT22;37879;52.986;6.282;2022-11-09T08:49:50;11.50;99.90
51825;DHT22;37879;52.986;6.282;2022-11-09T08:52:16;11.60;99.90
51825;DHT22;37879;52.986;6.282;2022-11-09T08:54:42;11.60;99.90
51825;DHT22;37879;52.986;6.282;2022-11-09T08:57:08;11.60;99.90
51825;DHT22;37879;52.986;6.282;2022-11-09T08:59:34;11.60;99.90
51825;DHT22;37879;52.986;6.282;2022-11-09T09:02:00;11.60;99.90
51825;DHT22;37879;52.986;6.282;2022-11-09T09:04:25;12.00;99.90
51825;DHT22;37879;52.986;6.282;2022-11-09T09:06:52;11.60;99.90
51825;DHT22;37879;52.986;6.282;2022-11-09T09:09:17;11.70;99.90
51825;DHT22;37879;52.986;6.282;2022-11-09T09:11:43;11.70;99.90
51825;DHT22;37879;52.986;6.282;2022-11-09T09:14:09;11.80;99.90
51825;DHT22;37879;52.986;6.282;2022-11-09T09:16:35;11.80;99.90
51825;DHT22;37879;52.986;6.282;2022-11-09T09:19:00;11.90;99.90
51825;DHT22;37879;52.986;6.282;2022-11-09T09:21:26;11.90;99.90
51825;DHT22;37879;52.986;6.282;2022-11-09T09:23:52;11.90;99.90
51825;DHT22;37879;52.986;6.282;2022-11-09T09:26:17;12.00;99.90
51825;DHT22;37879;52.986;6.282;2022-11-09T09:28:43;12.00;99.90
51825;DHT22;37879;52.986;6.282;2022-11-09T09:31:09;12.10;99.90
51825;DHT22;37879;52.986;6.282;2022-11-09T09:33:35;12.10;99.90
51825;DHT22;37879;52.986;6.282;2022-11-09T09:36:01;12.10;99.90
51825;DHT22;37879;52.986;6.282;2022-11-09T09:38:28;12.10;99.90
51825;DHT22;37879;52.986;6.282;2022-11-09T09:41:03;12.20;99.90
51825;DHT22;37879;52.986;6.282;2022-11-09T09:43:39;12.20;99.90
51825;DHT22;37879;52.986;6.282;2022-11-09T09:49:13;12.30;99.90
51825;DHT22;37879;52.986;6.282;2022-11-09T09:51:48;12.50;99.90
51825;DHT22;37879;52.986;6.282;2022-11-09T09:54:19;12.50;99.90
51825;DHT22;37879;52.986;6.282;2022-11-09T09:56:47;12.60;99.90
51825;DHT22;37879;52.986;6.282;2022-11-09T09:59:42;12.70;99.90
51825;DHT22;37879;52.986;6.282;2022-11-09T10:02:25;12.80;99.90
51825;DHT22;37879;52.986;6.282;2022-11-09T10:04:53;12.80;99.90
51825;DHT22;37879;52.986;6.282;2022-11-09T10:26:13;13.00;99.90
51825;DHT22;37879;52.986;6.282;2022-11-09T10:28:43;13.10;99.90
51825;DHT22;37879;52.986;6.282;2022-11-09T10:31:21;13.10;99.90
51825;DHT22;37879;52.986;6.282;2022-11-09T10:33:58;13.10;99.90
51825;DHT22;37879;52.986;6.282;2022-11-09T10:36:31;13.10;99.90
51825;DHT22;37879;52.986;6.282;2022-11-09T10:39:00;13.10;99.90
51825;DHT22;37879;52.986;6.282;2022-11-09T10:41:33;13.20;99.90
51825;DHT22;37879;52.986;6.282;2022-11-09T10:44:01;13.10;99.90
51825;DHT22;37879;52.986;6.282;2022-11-09T10:46:27;13.10;99.90
51825;DHT22;37879;52.986;6.282;2022-11-09T10:48:53;13.10;99.90
51825;DHT22;37879;52.986;6.282;2022-11-09T10:51:40;13.10;99.90
51825;DHT22;37879;52.986;6.282;2022-11-09T10:54:34;13.20;99.90
51825;DHT22;37879;52.986;6.282;2022-11-09T10:57:13;13.30;99.90
51825;DHT22;37879;52.986;6.282;2022-11-09T10:59:50;13.30;99.90
51825;DHT22;37879;52.986;6.282;2022-11-09T11:07:42;13.40;99.90
51825;DHT22;37879;52.986;6.282;2022-11-09T11:12:46;13.40;99.90
51825;DHT22;37879;52.986;6.282;2022-11-09T11:17:47;13.40;99.90
51825;DHT22;37879;52.986;6.282;2022-11-09T11:23:20;13.40;99.90
51825;DHT22;37879;52.986;6.282;2022-11-09T11:30:55;13.30;99.90
51825;DHT22;37879;52.986;6.282;2022-11-09T11:33:21;13.30;99.90
51825;DHT22;37879;52.986;6.282;2022-11-09T11:36:19;13.30;99.90
51825;DHT22;37879;52.986;6.282;2022-11-09T11:39:09;13.30;99.90
51825;DHT22;37879;52.986;6.282;2022-11-09T11:47:29;13.40;99.90
51825;DHT22;37879;52.986;6.282;2022-11-09T12:00:30;13.30;99.90
51825;DHT22;37879;52.986;6.282;2022-11-09T12:03:47;13.30;99.90
51825;DHT22;37879;52.986;6.282;2022-11-09T12:09:04;13.30;99.90
51825;DHT22;37879;52.986;6.282;2022-11-09T12:14:46;13.20;99.90
51825;DHT22;37879;52.986;6.282;2022-11-09T12:20:24;13.20;99.90
51825;DHT22;37879;52.986;6.282;2022-11-09T12:23:12;13.30;99.90
51825;DHT22;37879;52.986;6.282;2022-11-09T12:28:45;13.60;99.90
51825;DHT22;37879;52.986;6.282;2022-11-09T12:34:32;13.70;99.90
51825;DHT22;37879;52.986;6.282;2022-11-09T12:37:15;13.60;99.90
51825;DHT22;37879;52.986;6.282;2022-11-09T12:42:29;13.50;99.90
51825;DHT22;37879;52.986;6.282;2022-11-09T12:45:35;13.50;99.90
51825;DHT22;37879;52.986;6.282;2022-11-09T12:50:50;13.30;99.90
51825;DHT22;37879;52.986;6.282;2022-11-09T12:53:16;13.20;99.90
51825;DHT22;37879;52.986;6.282;2022-11-09T12:56:13;13.20;99.90
51825;DHT22;37879;52.986;6.282;2022-11-09T12:58:42;13.30;99.90
51825;DHT22;37879;52.986;6.282;2022-11-09T13:03:56;13.30;99.90
51825;DHT22;37879;52.986;6.282;2022-11-09T13:06:25;13.40;99.90
51825;DHT22;37879;52.986;6.282;2022-11-09T13:11:46;13.30;99.90
51825;DHT22;37879;52.986;6.282;2022-11-09T13:16:53;13.30;99.90
51825;DHT22;37879;52.986;6.282;2022-11-09T13:29:57;13.50;99.90
51825;DHT22;37879;52.986;6.282;2022-11-09T13:32:31;13.60;99.90
51825;DHT22;37879;52.986;6.282;2022-11-09T13:34:59;13.70;99.90
51825;DHT22;37879;52.986;6.282;2022-11-09T13:37:35;13.80;99.90
51825;DHT22;37879;52.986;6.282;2022-11-09T13:42:56;13.70;99.90
51825;DHT22;37879;52.986;6.282;2022-11-09T13:51:06;13.60;99.90
51825;DHT22;37879;52.986;6.282;2022-11-09T13:59:28;13.50;99.90
51825;DHT22;37879;52.986;6.282;2022-11-09T14:01:56;13.40;99.90
51825;DHT22;37879;52.986;6.282;2022-11-09T14:04:36;13.40;99.90
51825;DHT22;37879;52.986;6.282;2022-11-09T14:07:22;13.30;99.90
51825;DHT22;37879;52.986;6.282;2022-11-09T14:10:11;13.30;99.90
51825;DHT22;37879;52.986;6.282;2022-11-09T14:15:55;13.10;99.90
51825;DHT22;37879;52.986;6.282;2022-11-09T14:23:47;12.70;99.90
51825;DHT22;37879;52.986;6.282;2022-11-09T14:26:21;12.60;99.90
51825;DHT22;37879;52.986;6.282;2022-11-09T14:28:48;12.40;99.90
51825;DHT22;37879;52.986;6.282;2022-11-09T14:31:26;12.30;99.90
51825;DHT22;37879;52.986;6.282;2022-11-09T14:34:03;11.90;99.90
51825;DHT22;37879;52.986;6.282;2022-11-09T14:36:32;12.10;99.90
51825;DHT22;37879;52.986;6.282;2022-11-09T14:39:02;12.00;99.90
51825;DHT22;37879;52.986;6.282;2022-11-09T14:41:28;11.90;99.90
51825;DHT22;37879;52.986;6.282;2022-11-09T14:43:56;11.80;99.90
51825;DHT22;37879;52.986;6.282;2022-11-09T14:46:26;11.80;99.90
51825;DHT22;37879;52.986;6.282;2022-11-09T14:48:55;11.70;99.90
51825;DHT22;37879;52.986;6.282;2022-11-09T14:51:46;11.70;99.90
51825;DHT22;37879;52.986;6.282;2022-11-09T14:54:15;11.60;99.90
51825;DHT22;37879;52.986;6.282;2022-11-09T14:56:42;11.70;99.90
51825;DHT22;37879;52.986;6.282;2022-11-09T14:59:13;11.60;99.90
51825;DHT22;37879;52.986;6.282;2022-11-09T15:01:40;11.60;99.90
51825;DHT22;37879;52.986;6.282;2022-11-09T15:04:20;11.50;99.90
51825;DHT22;37879;52.986;6.282;2022-11-09T15:06:53;11.50;99.90
51825;DHT22;37879;52.986;6.282;2022-11-09T15:09:55;11.50;99.90
51825;DHT22;37879;52.986;6.282;2022-11-09T15:12:17;11.40;99.90
51825;DHT22;37879;52.986;6.282;2022-11-09T15:14:55;11.40;99.90
51825;DHT22;37879;52.986;6.282;2022-11-09T15:17:28;11.40;99.90
51825;DHT22;37879;52.986;6.282;2022-11-09T15:19:57;11.30;99.90
51825;DHT22;37879;52.986;6.282;2022-11-09T15:25:29;11.30;99.90
51825;DHT22;37879;52.986;6.282;2022-11-09T15:33:37;11.20;99.90
51825;DHT22;37879;52.986;6.282;2022-11-09T15:36:18;11.20;99.90
51825;DHT22;37879;52.986;6.282;2022-11-09T15:41:23;11.20;99.90
51825;DHT22;37879;52.986;6.282;2022-11-09T15:43:49;11.20;99.90
51825;DHT22;37879;52.986;6.282;2022-11-09T15:46:24;11.20;99.90
51825;DHT22;37879;52.986;6.282;2022-11-09T15:48:51;11.20;99.90
51825;DHT22;37879;52.986;6.282;2022-11-09T15:51:17;11.20;99.90
51825;DHT22;37879;52.986;6.282;2022-11-09T15:53:43;11.20;99.90
51825;DHT22;37879;52.986;6.282;2022-11-09T15:56:20;11.20;99.90
51825;DHT22;37879;52.986;6.282;2022-11-09T15:58:47;11.20;99.90
51825;DHT22;37879;52.986;6.282;2022-11-09T16:01:14;11.20;99.90
51825;DHT22;37879;52.986;6.282;2022-11-09T16:03:40;11.20;99.90
51825;DHT22;37879;52.986;6.282;2022-11-09T16:06:12;11.10;99.90
51825;DHT22;37879;52.986;6.282;2022-11-09T16:08:39;11.30;99.90
51825;DHT22;37879;52.986;6.282;2022-11-09T16:11:05;11.10;99.90
51825;DHT22;37879;52.986;6.282;2022-11-09T16:13:32;11.10;99.90
51825;DHT22;37879;52.986;6.282;2022-11-09T16:16:03;11.10;99.90
51825;DHT22;37879;52.986;6.282;2022-11-09T16:18:29;11.10;99.90
51825;DHT22;37879;52.986;6.282;2022-11-09T16:20:54;11.10;99.90
51825;DHT22;37879;52.986;6.282;2022-11-09T16:23:20;11.10;99.90
51825;DHT22;37879;52.986;6.282;2022-11-09T16:25:46;11.10;99.90
51825;DHT22;37879;52.986;6.282;2022-11-09T16:28:12;11.00;99.90
51825;DHT22;37879;52.986;6.282;2022-11-09T16:30:38;11.00;99.90
51825;DHT22;37879;52.986;6.282;2022-11-09T16:33:03;11.00;99.90
51825;DHT22;37879;52.986;6.282;2022-11-09T16:35:29;11.00;99.90
51825;DHT22;37879;52.986;6.282;2022-11-09T16:37:56;11.10;99.90
51825;DHT22;37879;52.986;6.282;2022-11-09T16:40:22;11.10;99.90
51825;DHT22;37879;52.986;6.282;2022-11-09T16:42:49;11.10;99.90
51825;DHT22;37879;52.986;6.282;2022-11-09T16:45:16;11.10;99.90
51825;DHT22;37879;52.986;6.282;2022-11-09T16:47:48;11.10;99.90
51825;DHT22;37879;52.986;6.282;2022-11-09T16:50:15;11.20;99.90
51825;DHT22;37879;52.986;6.282;2022-11-09T16:52:41;11.10;99.90
51825;DHT22;37879;52.986;6.282;2022-11-09T16:55:07;11.10;99.90
51825;DHT22;37879;52.986;6.282;2022-11-09T16:57:34;11.10;99.90
51825;DHT22;37879;52.986;6.282;2022-11-09T17:00:00;11.10;99.90
51825;DHT22;37879;52.986;6.282;2022-11-09T17:02:26;11.10;99.90
51825;DHT22;37879;52.986;6.282;2022-11-09T17:04:52;11.10;99.90
51825;DHT22;37879;52.986;6.282;2022-11-09T17:07:19;11.00;99.90
51825;DHT22;37879;52.986;6.282;2022-11-09T17:09:45;11.00;99.90
51825;DHT22;37879;52.986;6.282;2022-11-09T17:12:11;11.00;99.90
51825;DHT22;37879;52.986;6.282;2022-11-09T17:14:36;10.90;99.90
51825;DHT22;37879;52.986;6.282;2022-11-09T17:17:02;10.90;99.90
51825;DHT22;37879;52.986;6.282;2022-11-09T17:19:32;10.90;99.90
51825;DHT22;37879;52.986;6.282;2022-11-09T17:21:58;10.90;99.90
51825;DHT22;37879;52.986;6.282;2022-11-09T17:24:25;10.90;99.90
51825;DHT22;37879;52.986;6.282;2022-11-09T17:26:51;10.80;99.90
51825;DHT22;37879;52.986;6.282;2022-11-09T17:29:17;10.80;99.90
51825;DHT22;37879;52.986;6.282;2022-11-09T17:31:42;11.80;99.90
51825;DHT22;37879;52.986;6.282;2022-11-09T17:34:09;10.70;99.90
51825;DHT22;37879;52.986;6.282;2022-11-09T17:36:37;10.70;99.90
51825;DHT22;37879;52.986;6.282;2022-11-09T17:39:03;10.70;99.90
51825;DHT22;37879;52.986;6.282;2022-11-09T17:41:29;10.60;99.90
51825;DHT22;37879;52.986;6.282;2022-11-09T17:43:55;10.60;99.90
51825;DHT22;37879;52.986;6.282;2022-11-09T17:46:21;10.60;99.90
51825;DHT22;37879;52.986;6.282;2022-11-09T17:48:48;10.60;99.90
51825;DHT22;37879;52.986;6.282;2022-11-09T17:51:16;10.60;99.90
51825;DHT22;37879;52.986;6.282;2022-11-09T17:53:42;10.60;99.90